createdAt,value
2022-10-23T00:01:17.331Z,100.00
2022-10-23T00:03:44.507Z,100.00
2022-10-23T00:06:12.730Z,100.00
2022-10-23T00:08:39.321Z,100.00
2022-10-23T00:11:14.292Z,100.00
2022-10-23T00:13:41.361Z,100.00
2022-10-23T00:16:09.299Z,100.00
2022-10-23T00:18:36.765Z,100.00
2022-10-23T00:21:04.131Z,100.00
2022-10-23T00:23:30.565Z,100.00
2022-10-23T00:25:56.891Z,100.00
2022-10-23T00:28:23.357Z,100.00
2022-10-23T00:30:49.697Z,100.00
2022-10-23T00:33:16.363Z,100.00
2022-10-23T00:35:43.267Z,100.00
2022-10-23T00:38:10.611Z,100.00
2022-10-23T00:40:38.341Z,100.00
2022-10-23T00:43:05.063Z,100.00
2022-10-23T00:45:33.399Z,100.00
2022-10-23T00:48:01.774Z,100.00
2022-10-23T00:50:30.945Z,100.00
2022-10-23T00:53:01.832Z,100.00
2022-10-23T00:55:30.136Z,100.00
2022-10-23T00:57:56.618Z,100.00
2022-10-23T01:00:22.887Z,100.00
2022-10-23T01:02:49.767Z,100.00
2022-10-23T01:05:16.380Z,100.00
2022-10-23T01:07:45.765Z,100.00
2022-10-23T01:10:18.593Z,100.00
2022-10-23T01:13:03.760Z,100.00
2022-10-23T01:15:40.792Z,100.00
2022-10-23T01:18:25.255Z,100.00
2022-10-23T01:21:18.321Z,100.00
2022-10-23T01:24:26.833Z,100.00
2022-10-23T01:27:14.294Z,100.00
2022-10-23T01:29:49.430Z,100.00
2022-10-23T01:32:35.486Z,100.00
2022-10-23T01:35:19.182Z,100.00
2022-10-23T01:37:51.119Z,100.00
2022-10-23T01:40:30.062Z,100.00
2022-10-23T01:43:02.157Z,100.00
2022-10-23T01:45:40.935Z,100.00
2022-10-23T01:48:11.953Z,100.00
2022-10-23T01:50:41.031Z,100.00
2022-10-23T01:53:08.025Z,100.00
2022-10-23T01:55:38.980Z,100.00
2022-10-23T01:58:08.358Z,100.00
2022-10-23T02:00:38.527Z,100.00
2022-10-23T02:03:07.262Z,100.00
2022-10-23T02:05:33.978Z,100.00
2022-10-23T02:08:01.148Z,100.00
2022-10-23T02:10:45.722Z,100.00
2022-10-23T02:13:29.716Z,100.00
2022-10-23T02:16:23.509Z,100.00
2022-10-23T02:18:56.030Z,100.00
2022-10-23T02:21:34.042Z,100.00
2022-10-23T02:24:09.316Z,100.00
2022-10-23T02:26:49.100Z,100.00
2022-10-23T02:29:30.921Z,100.00
2022-10-23T02:31:57.324Z,100.00
2022-10-23T02:34:23.748Z,100.00
2022-10-23T02:36:50.744Z,100.00
2022-10-23T02:39:17.075Z,100.00
2022-10-23T02:42:11.912Z,100.00
2022-10-23T02:44:55.328Z,100.00
2022-10-23T02:47:34.710Z,100.00
2022-10-23T02:50:08.067Z,100.00
2022-10-23T02:52:50.300Z,100.00
2022-10-23T02:55:41.753Z,100.00
2022-10-23T02:58:19.102Z,100.00
2022-10-23T03:00:52.235Z,100.00
2022-10-23T03:03:24.867Z,100.00
2022-10-23T03:05:51.266Z,100.00
2022-10-23T03:08:17.639Z,100.00
2022-10-23T03:10:44.290Z,100.00
2022-10-23T03:13:11.697Z,100.00
2022-10-23T03:15:37.988Z,100.00
2022-10-23T03:18:04.446Z,100.00
2022-10-23T03:20:30.861Z,100.00
2022-10-23T03:22:57.175Z,100.00
2022-10-23T03:25:23.464Z,100.00
2022-10-23T03:27:49.735Z,100.00
2022-10-23T03:30:17.291Z,100.00
2022-10-23T03:32:43.737Z,100.00
2022-10-23T03:35:10.398Z,100.00
2022-10-23T03:37:36.705Z,100.00
2022-10-23T03:40:04.507Z,100.00
2022-10-23T03:42:30.782Z,100.00
2022-10-23T03:44:57.066Z,100.00
2022-10-23T03:47:23.454Z,100.00
2022-10-23T03:49:49.726Z,100.00
2022-10-23T03:52:16.067Z,100.00
2022-10-23T03:54:42.426Z,100.00
2022-10-23T03:57:08.722Z,100.00
2022-10-23T03:59:35.155Z,100.00
2022-10-23T04:02:01.593Z,100.00
2022-10-23T04:04:28.004Z,100.00
2022-10-23T04:06:54.431Z,100.00
2022-10-23T04:09:20.751Z,100.00
2022-10-23T04:11:47.093Z,100.00
2022-10-23T04:14:14.175Z,100.00
2022-10-23T04:16:40.692Z,100.00
2022-10-23T04:19:07.251Z,100.00
2022-10-23T04:21:34.071Z,100.00
2022-10-23T04:24:00.412Z,100.00
2022-10-23T04:26:26.682Z,100.00
2022-10-23T04:28:53.003Z,100.00
2022-10-23T04:31:19.311Z,100.00
2022-10-23T04:33:45.643Z,100.00
2022-10-23T04:36:11.978Z,100.00
2022-10-23T04:38:38.296Z,100.00
2022-10-23T04:41:04.662Z,100.00
2022-10-23T04:43:30.970Z,100.00
2022-10-23T04:45:57.254Z,100.00
2022-10-23T04:48:25.652Z,100.00
2022-10-23T04:50:59.907Z,100.00
2022-10-23T04:53:27.535Z,100.00
2022-10-23T04:55:56.186Z,100.00
2022-10-23T04:58:23.526Z,100.00
2022-10-23T05:00:50.289Z,100.00
2022-10-23T05:03:18.116Z,100.00
2022-10-23T05:05:45.794Z,100.00
2022-10-23T05:08:15.560Z,100.00
2022-10-23T05:10:44.313Z,100.00
2022-10-23T05:13:10.591Z,100.00
2022-10-23T05:15:36.935Z,100.00
2022-10-23T05:18:11.947Z,100.00
2022-10-23T05:20:39.618Z,100.00
2022-10-23T05:23:09.847Z,100.00
2022-10-23T05:25:36.802Z,100.00
2022-10-23T05:28:03.497Z,100.00
2022-10-23T05:30:30.114Z,100.00
2022-10-23T05:32:56.424Z,100.00
2022-10-23T05:35:23.380Z,100.00
2022-10-23T05:37:53.358Z,100.00
2022-10-23T05:40:20.046Z,100.00
2022-10-23T05:42:46.703Z,100.00
2022-10-23T05:45:13.173Z,100.00
2022-10-23T05:47:39.489Z,100.00
2022-10-23T05:50:06.052Z,100.00
2022-10-23T05:52:32.356Z,100.00
2022-10-23T05:54:58.622Z,100.00
2022-10-23T05:57:24.939Z,100.00
2022-10-23T05:59:51.263Z,100.00
2022-10-23T06:02:17.623Z,100.00
2022-10-23T06:04:43.998Z,100.00
2022-10-23T06:07:10.286Z,100.00
2022-10-23T06:09:36.570Z,100.00
2022-10-23T06:12:02.951Z,100.00
2022-10-23T06:14:29.276Z,100.00
2022-10-23T06:16:55.624Z,100.00
2022-10-23T06:19:21.989Z,100.00
2022-10-23T06:21:48.379Z,100.00
2022-10-23T06:24:14.820Z,100.00
2022-10-23T06:26:41.081Z,100.00
2022-10-23T06:29:07.494Z,100.00
2022-10-23T06:31:33.792Z,100.00
2022-10-23T06:34:00.306Z,100.00
2022-10-23T06:36:27.420Z,100.00
2022-10-23T06:38:53.753Z,100.00
2022-10-23T06:41:21.997Z,100.00
2022-10-23T06:43:50.522Z,100.00
2022-10-23T06:46:18.878Z,100.00
2022-10-23T06:48:45.186Z,100.00
2022-10-23T06:51:13.278Z,100.00
2022-10-23T06:53:40.374Z,100.00
2022-10-23T06:56:07.806Z,100.00
2022-10-23T06:58:35.575Z,100.00
2022-10-23T07:01:03.885Z,100.00
2022-10-23T07:03:30.348Z,100.00
2022-10-23T07:06:00.760Z,100.00
2022-10-23T07:08:27.075Z,100.00
2022-10-23T07:10:53.531Z,100.00
2022-10-23T07:13:19.873Z,100.00
2022-10-23T07:15:46.258Z,100.00
2022-10-23T07:18:14.608Z,100.00
2022-10-23T07:20:41.761Z,100.00
2022-10-23T07:23:11.059Z,100.00
2022-10-23T07:25:37.746Z,100.00
2022-10-23T07:28:05.028Z,100.00
2022-10-23T07:30:31.546Z,100.00
2022-10-23T07:32:57.853Z,100.00
2022-10-23T07:35:24.326Z,100.00
2022-10-23T07:37:50.700Z,100.00
2022-10-23T07:40:18.661Z,100.00
2022-10-23T07:42:45.077Z,100.00
2022-10-23T07:45:12.400Z,100.00
2022-10-23T07:47:38.730Z,100.00
2022-10-23T07:50:05.455Z,100.00
2022-10-23T07:52:35.043Z,100.00
2022-10-23T07:55:02.381Z,100.00
2022-10-23T07:57:28.643Z,100.00
2022-10-23T07:59:54.954Z,100.00
2022-10-23T08:02:21.296Z,100.00
2022-10-23T08:04:50.894Z,100.00
2022-10-23T08:07:17.423Z,100.00
2022-10-23T08:09:43.722Z,100.00
2022-10-23T08:12:10.333Z,100.00
2022-10-23T08:14:36.666Z,100.00
2022-10-23T08:17:04.676Z,100.00
2022-10-23T08:19:31.075Z,100.00
2022-10-23T08:21:57.563Z,100.00
2022-10-23T08:24:23.867Z,100.00
2022-10-23T08:26:50.306Z,100.00
2022-10-23T08:29:16.848Z,100.00
2022-10-23T08:31:43.197Z,100.00
2022-10-23T08:34:09.560Z,100.00
2022-10-23T08:36:36.428Z,100.00
2022-10-23T08:39:02.749Z,100.00
2022-10-23T08:41:35.938Z,100.00
2022-10-23T08:44:14.497Z,100.00
2022-10-23T08:46:44.535Z,100.00
2022-10-23T08:49:13.814Z,100.00
2022-10-23T08:51:47.354Z,100.00
2022-10-23T08:54:24.240Z,100.00
2022-10-23T08:57:16.013Z,100.00
2022-10-23T08:59:55.847Z,100.00
2022-10-23T09:02:27.936Z,100.00
2022-10-23T09:04:57.144Z,100.00
2022-10-23T09:07:42.849Z,100.00
2022-10-23T09:10:23.200Z,100.00
2022-10-23T09:12:49.779Z,100.00
2022-10-23T09:15:29.951Z,100.00
2022-10-23T09:17:59.940Z,100.00
2022-10-23T09:20:35.333Z,100.00
2022-10-23T09:23:16.207Z,100.00
2022-10-23T09:25:43.280Z,100.00
2022-10-23T09:28:20.620Z,100.00
2022-10-23T09:30:48.282Z,100.00
2022-10-23T09:33:22.033Z,100.00
2022-10-23T09:35:53.163Z,100.00
2022-10-23T09:38:31.869Z,100.00
2022-10-23T09:41:20.175Z,100.00
2022-10-23T09:43:46.576Z,100.00
2022-10-23T09:46:13.175Z,100.00
2022-10-23T09:48:42.116Z,100.00
2022-10-23T09:51:20.686Z,100.00
2022-10-23T09:53:54.243Z,100.00
2022-10-23T09:56:31.338Z,100.00
2022-10-23T09:58:59.097Z,100.00
2022-10-23T10:01:29.386Z,100.00
2022-10-23T10:03:56.826Z,100.00
2022-10-23T10:06:32.136Z,96.98
2022-10-23T10:09:16.055Z,93.71
2022-10-23T10:11:49.892Z,95.86
2022-10-23T10:14:31.615Z,91.65
2022-10-23T10:17:04.439Z,88.53
2022-10-23T10:20:05.446Z,88.27
2022-10-23T10:22:38.908Z,89.48
2022-10-23T10:25:29.019Z,88.68
2022-10-23T10:28:17.271Z,86.49
2022-10-23T10:31:17.791Z,85.88
2022-10-23T10:34:02.962Z,85.64
2022-10-23T10:36:41.925Z,80.92
2022-10-23T10:39:38.215Z,76.40
2022-10-23T10:42:31.073Z,77.50
2022-10-23T10:45:24.043Z,75.90
2022-10-23T10:48:15.557Z,79.33
2022-10-23T10:50:52.080Z,77.26
2022-10-23T10:53:27.156Z,80.86
2022-10-23T10:56:00.155Z,83.06
2022-10-23T10:58:41.850Z,77.99
2022-10-23T11:01:26.639Z,79.21
2022-10-23T11:04:11.928Z,82.34
2022-10-23T11:06:41.527Z,77.34
2022-10-23T11:09:21.731Z,78.79
2022-10-23T11:11:48.773Z,75.71
2022-10-23T11:14:17.010Z,77.18
2022-10-23T11:16:47.922Z,78.50
2022-10-23T11:19:29.210Z,80.14
2022-10-23T11:22:03.134Z,77.41
2022-10-23T11:24:35.480Z,75.69
2022-10-23T11:27:10.922Z,75.92
2022-10-23T11:29:50.692Z,75.26
2022-10-23T11:32:26.088Z,73.71
2022-10-23T11:35:08.504Z,74.74
2022-10-23T11:37:34.969Z,74.55
2022-10-23T11:40:07.079Z,73.37
2022-10-23T11:42:46.992Z,74.26
2022-10-23T11:45:34.815Z,71.76
2022-10-23T11:48:03.971Z,68.80
2022-10-23T11:50:33.679Z,72.96
2022-10-23T11:53:14.564Z,71.99
2022-10-23T11:55:57.249Z,71.40
2022-10-23T11:58:31.466Z,72.13
2022-10-23T12:01:18.073Z,73.26
2022-10-23T12:04:16.506Z,75.91
2022-10-23T12:06:46.991Z,75.69
2022-10-23T12:09:37.295Z,78.07
2022-10-23T12:12:09.827Z,79.88
2022-10-23T12:14:38.509Z,77.13
2022-10-23T12:17:23.119Z,79.05
2022-10-23T12:19:54.935Z,78.69
2022-10-23T12:22:27.986Z,77.83
2022-10-23T12:25:07.138Z,80.98
2022-10-23T12:27:48.723Z,81.45
2022-10-23T12:30:39.856Z,82.67
2022-10-23T12:33:14.266Z,82.51
2022-10-23T12:36:22.461Z,83.93
2022-10-23T12:38:54.631Z,85.64
2022-10-23T12:41:29.479Z,85.43
2022-10-23T12:44:02.389Z,85.20
2022-10-23T12:46:36.236Z,86.19
2022-10-23T12:49:12.471Z,85.51
2022-10-23T12:51:38.746Z,86.80
2022-10-23T12:54:15.753Z,86.18
2022-10-23T12:56:44.072Z,88.81
2022-10-23T12:59:20.438Z,87.76
2022-10-23T13:01:50.462Z,88.48
2022-10-23T13:04:31.029Z,89.14
2022-10-23T13:07:00.663Z,86.43
2022-10-23T13:09:32.789Z,86.42
2022-10-23T13:12:02.614Z,85.27
2022-10-23T13:14:40.646Z,85.95
2022-10-23T13:17:11.527Z,84.95
2022-10-23T13:19:37.984Z,85.46
2022-10-23T13:22:17.826Z,87.11
2022-10-23T13:24:44.296Z,87.60
2022-10-23T13:27:33.376Z,88.38
2022-10-23T13:30:00.208Z,87.28
2022-10-23T13:32:29.794Z,88.80
2022-10-23T13:35:10.194Z,89.96
2022-10-23T13:40:26.134Z,91.58
2022-10-23T13:42:57.056Z,88.89
2022-10-23T13:45:25.622Z,88.91
2022-10-23T13:47:52.404Z,90.25
2022-10-23T13:50:19.875Z,91.57
2022-10-23T13:52:46.391Z,88.56
2022-10-23T13:55:21.997Z,89.15
2022-10-23T13:57:48.343Z,88.80
2022-10-23T14:00:15.182Z,88.21
2022-10-23T14:02:41.916Z,88.41
2022-10-23T14:05:09.061Z,89.09
2022-10-23T14:07:35.362Z,88.71
2022-10-23T14:10:01.708Z,88.15
2022-10-23T14:12:27.998Z,89.34
2022-10-23T14:14:54.324Z,87.65
2022-10-23T14:17:21.134Z,88.90
2022-10-23T14:19:47.546Z,86.99
2022-10-23T14:22:13.912Z,85.45
2022-10-23T14:24:40.264Z,86.84
2022-10-23T14:27:06.557Z,86.95
2022-10-23T14:29:32.874Z,87.82
2022-10-23T14:31:59.179Z,87.37
2022-10-23T14:34:25.662Z,88.66
2022-10-23T14:37:07.496Z,88.23
2022-10-23T14:39:35.097Z,89.93
2022-10-23T14:42:01.441Z,90.83
2022-10-23T14:44:27.895Z,91.02
2022-10-23T14:46:54.244Z,91.29
2022-10-23T14:49:20.625Z,91.71
2022-10-23T14:51:46.934Z,92.20
2022-10-23T14:54:13.339Z,92.99
2022-10-23T14:56:40.694Z,93.06
2022-10-23T14:59:07.898Z,93.50
2022-10-23T15:01:37.806Z,94.37
2022-10-23T15:04:05.063Z,95.52
2022-10-23T15:06:33.107Z,96.08
2022-10-23T15:08:59.639Z,96.78
2022-10-23T15:11:26.822Z,98.74
2022-10-23T15:13:54.590Z,99.66
2022-10-23T15:16:22.776Z,100.00
2022-10-23T15:18:53.866Z,100.00
2022-10-23T15:21:20.272Z,100.00
2022-10-23T15:23:46.918Z,100.00
2022-10-23T15:26:23.541Z,100.00
2022-10-23T15:28:58.347Z,100.00
2022-10-23T15:31:42.982Z,100.00
2022-10-23T15:34:11.623Z,100.00
2022-10-23T15:36:37.951Z,100.00
2022-10-23T15:39:09.423Z,100.00
2022-10-23T15:41:37.562Z,100.00
2022-10-23T15:44:06.113Z,100.00
2022-10-23T15:46:32.746Z,100.00
2022-10-23T15:48:59.095Z,100.00
2022-10-23T15:51:26.051Z,100.00
2022-10-23T15:53:52.462Z,100.00
2022-10-23T15:56:18.772Z,100.00
2022-10-23T15:58:45.327Z,100.00
2022-10-23T16:01:11.783Z,100.00
2022-10-23T16:03:39.019Z,100.00
2022-10-23T16:06:08.135Z,100.00
2022-10-23T16:08:34.678Z,100.00
2022-10-23T16:11:01.529Z,100.00
2022-10-23T16:13:28.449Z,100.00
2022-10-23T16:15:54.829Z,100.00
2022-10-23T16:18:22.675Z,100.00
2022-10-23T16:20:50.837Z,100.00
2022-10-23T16:23:17.516Z,100.00
2022-10-23T16:25:43.960Z,100.00
2022-10-23T16:28:10.276Z,100.00
2022-10-23T16:30:41.483Z,100.00
2022-10-23T16:33:08.478Z,100.00
2022-10-23T16:35:35.716Z,100.00
2022-10-23T16:38:02.067Z,100.00
2022-10-23T16:40:28.518Z,100.00
2022-10-23T16:42:54.837Z,100.00
2022-10-23T16:45:21.298Z,100.00
2022-10-23T16:47:47.579Z,100.00
2022-10-23T16:50:15.284Z,100.00
2022-10-23T16:52:42.348Z,100.00
2022-10-23T16:55:09.376Z,100.00
2022-10-23T16:57:36.709Z,100.00
2022-10-23T17:00:05.295Z,100.00
2022-10-23T17:02:31.945Z,100.00
2022-10-23T17:04:58.520Z,100.00
2022-10-23T17:07:25.101Z,100.00
2022-10-23T17:09:51.409Z,100.00
2022-10-23T17:12:17.766Z,100.00
2022-10-23T17:14:44.108Z,100.00
2022-10-23T17:17:10.816Z,100.00
2022-10-23T17:19:45.139Z,100.00
2022-10-23T17:22:12.552Z,100.00
2022-10-23T17:24:40.143Z,100.00
2022-10-23T17:27:06.884Z,100.00
2022-10-23T17:29:33.462Z,100.00
2022-10-23T17:32:00.022Z,100.00
2022-10-23T17:34:26.387Z,100.00
2022-10-23T17:36:55.175Z,100.00
2022-10-23T17:39:27.192Z,100.00
2022-10-23T17:41:54.795Z,100.00
2022-10-23T17:44:21.400Z,100.00
2022-10-23T17:46:53.406Z,100.00
2022-10-23T17:49:20.618Z,100.00
2022-10-23T17:51:54.466Z,100.00
2022-10-23T17:54:20.920Z,100.00
2022-10-23T17:56:47.204Z,100.00
2022-10-23T17:59:15.523Z,100.00
2022-10-23T18:01:46.788Z,100.00
2022-10-23T18:04:14.259Z,100.00
2022-10-23T18:06:44.189Z,100.00
2022-10-23T18:09:11.711Z,100.00
2022-10-23T18:11:45.396Z,100.00
2022-10-23T18:14:15.343Z,100.00
2022-10-23T18:16:41.712Z,100.00
2022-10-23T18:19:08.590Z,100.00
2022-10-23T18:21:35.806Z,100.00
2022-10-23T18:24:02.271Z,100.00
2022-10-23T18:26:30.687Z,100.00
2022-10-23T18:28:59.058Z,100.00
2022-10-23T18:31:29.535Z,100.00
2022-10-23T18:34:04.195Z,100.00
2022-10-23T18:36:33.283Z,100.00
2022-10-23T18:38:59.900Z,100.00
2022-10-23T18:41:27.161Z,100.00
2022-10-23T18:43:54.326Z,100.00
2022-10-23T18:46:21.448Z,100.00
2022-10-23T18:48:50.476Z,100.00
2022-10-23T18:51:31.122Z,100.00
2022-10-23T18:54:00.799Z,100.00
2022-10-23T18:56:27.840Z,100.00
2022-10-23T18:58:56.261Z,100.00
2022-10-23T19:01:23.218Z,100.00
2022-10-23T19:03:49.838Z,100.00
2022-10-23T19:06:17.070Z,100.00
2022-10-23T19:08:45.095Z,100.00
2022-10-23T19:11:13.518Z,100.00
2022-10-23T19:13:40.333Z,100.00
2022-10-23T19:16:10.451Z,100.00
2022-10-23T19:18:40.424Z,100.00
2022-10-23T19:21:07.579Z,100.00
2022-10-23T19:23:36.374Z,100.00
2022-10-23T19:26:09.426Z,100.00
2022-10-23T19:28:42.264Z,100.00
2022-10-23T19:31:09.828Z,100.00
2022-10-23T19:33:38.377Z,100.00
2022-10-23T19:36:08.871Z,100.00
2022-10-23T19:38:40.137Z,100.00
2022-10-23T19:41:06.574Z,100.00
2022-10-23T19:43:33.127Z,100.00
2022-10-23T19:46:06.318Z,100.00
2022-10-23T19:48:35.776Z,100.00
2022-10-23T19:51:02.109Z,100.00
2022-10-23T19:53:28.471Z,100.00
2022-10-23T19:56:02.792Z,100.00
2022-10-23T19:58:29.122Z,100.00
2022-10-23T20:00:55.435Z,100.00
2022-10-23T20:03:21.758Z,100.00
2022-10-23T20:05:48.058Z,100.00
2022-10-23T20:08:14.362Z,100.00
2022-10-23T20:10:44.337Z,100.00
2022-10-23T20:13:20.516Z,100.00
2022-10-23T20:15:47.003Z,100.00
2022-10-23T20:18:13.280Z,100.00
2022-10-23T20:20:41.279Z,100.00
2022-10-23T20:23:07.811Z,100.00
2022-10-23T20:25:34.161Z,100.00
2022-10-23T20:28:00.484Z,100.00
2022-10-23T20:30:26.859Z,100.00
2022-10-23T20:32:53.185Z,100.00
2022-10-23T20:35:19.482Z,100.00
2022-10-23T20:37:46.212Z,100.00
2022-10-23T20:40:12.916Z,100.00
2022-10-23T20:42:39.220Z,100.00
2022-10-23T20:45:06.027Z,100.00
2022-10-23T20:47:32.336Z,100.00
2022-10-23T20:49:58.898Z,100.00
2022-10-23T20:52:26.112Z,100.00
2022-10-23T20:54:52.410Z,100.00
2022-10-23T20:57:21.238Z,100.00
2022-10-23T20:59:47.779Z,100.00
2022-10-23T21:02:14.144Z,100.00
2022-10-23T21:04:40.549Z,100.00
2022-10-23T21:07:11.420Z,100.00
2022-10-23T21:09:39.387Z,100.00
2022-10-23T21:12:06.469Z,100.00
2022-10-23T21:14:33.377Z,100.00
2022-10-23T21:16:59.708Z,100.00
2022-10-23T21:19:26.065Z,100.00
2022-10-23T21:21:52.460Z,100.00
2022-10-23T21:24:18.812Z,100.00
2022-10-23T21:26:45.188Z,100.00
2022-10-23T21:29:18.581Z,100.00
2022-10-23T21:31:51.812Z,100.00
2022-10-23T21:34:18.146Z,100.00
2022-10-23T21:37:10.896Z,100.00
2022-10-23T21:39:33.095Z,100.00
2022-10-23T21:41:59.396Z,100.00
2022-10-23T21:44:25.718Z,100.00
2022-10-23T21:46:52.118Z,100.00
2022-10-23T21:49:18.418Z,100.00
2022-10-23T21:51:44.692Z,100.00
2022-10-23T21:54:14.668Z,100.00
2022-10-23T21:56:46.633Z,100.00
2022-10-23T21:59:17.322Z,100.00
2022-10-23T22:01:45.453Z,100.00
2022-10-23T22:04:14.163Z,100.00
2022-10-23T22:06:41.952Z,100.00
2022-10-23T22:09:09.729Z,100.00
2022-10-23T22:11:36.163Z,100.00
2022-10-23T22:14:03.461Z,100.00
2022-10-23T22:16:29.866Z,100.00
2022-10-23T22:18:56.316Z,100.00
2022-10-23T22:21:25.924Z,100.00
2022-10-23T22:23:55.122Z,100.00
2022-10-23T22:26:23.478Z,100.00
2022-10-23T22:28:51.827Z,100.00
2022-10-23T22:31:21.286Z,100.00
2022-10-23T22:33:47.992Z,100.00
2022-10-23T22:36:14.978Z,100.00
2022-10-23T22:38:41.473Z,100.00
2022-10-23T22:41:08.787Z,100.00
2022-10-23T22:43:35.250Z,100.00
2022-10-23T22:46:03.473Z,100.00
2022-10-23T22:48:29.854Z,100.00
2022-10-23T22:50:56.155Z,100.00
2022-10-23T22:53:22.545Z,100.00
2022-10-23T22:55:48.899Z,100.00
2022-10-23T22:58:15.186Z,100.00
2022-10-23T23:00:43.577Z,100.00
2022-10-23T23:03:10.126Z,100.00
2022-10-23T23:08:14.734Z,100.00
2022-10-23T23:10:41.195Z,100.00
2022-10-23T23:13:07.855Z,100.00
2022-10-23T23:15:39.378Z,100.00
2022-10-23T23:18:05.672Z,100.00
2022-10-23T23:20:31.963Z,100.00
2022-10-23T23:22:58.275Z,100.00
2022-10-23T23:25:24.599Z,100.00
2022-10-23T23:27:50.897Z,100.00
2022-10-23T23:30:17.274Z,100.00
2022-10-23T23:32:43.924Z,100.00
2022-10-23T23:35:10.543Z,100.00
2022-10-23T23:37:36.838Z,100.00
2022-10-23T23:40:04.034Z,100.00
2022-10-23T23:42:30.635Z,100.00
2022-10-23T23:45:02.696Z,100.00
2022-10-23T23:47:40.513Z,100.00
2022-10-23T23:50:08.850Z,100.00
2022-10-23T23:52:35.242Z,100.00
2022-10-23T23:55:01.570Z,100.00
2022-10-23T23:57:27.936Z,100.00
2022-10-23T23:59:54.221Z,100.00
